KOVE

Oroville Municipal Airport

Oroville, California, USA
METAR KOVE 201753Z AUTO 00000KT 10SM CLR 23/04 A3003 RMK AO2 SLP169 T02330039 10233 20106 58004
Observed Flight Rules
Oct-20 @ 17:53 UTC (12 minutes ago) Visual Flight Rules
Visibility Clouds
10 miles
  • Clear skies
Temperatures Readings
Current 23°C / 73°F
Dewpoint 4°C / 39°F
Humidity 29%
Altimeter 30.03" Hg
Pressure 1016.9 hPa
Elevation 58
METAR KOVE 201753Z AUTO 00000KT 10SM CLR 23/04 A3003 RMK AO2 SLP169 T02330039 10233 20106 58004
Observed Flight Rules
Oct-20 @ 17:53 UTC
(12 minutes ago)
VFR
Clouds
  • Clear skies
Temperature Dewpoint
23°C / 73°F 4°C / 39°F
Humidity Altimeter Pressure
29% 30.03" Hg 1016.9 hPa